Time;durP1;ratioP1;P1;durP2;ratioP2;P2;SDS_P1;SDS_P2;PMS_P1;PMS_P2;Temp;Humidity;BMP_temperature;BMP_pressure;BME280_temperature;BME280_humidity;BME280_pressure;Samples;Min_cycle;Max_cycle;Signal;HPM_P1;HPM_P2
2022/08/27 00:01:15;;;;;;;15.07;13.77;;;17.40;99.90;;;;;;2618605;54;20433;-84
2022/08/27 00:07:04;;;;;;;16.90;14.80;;;17.30;99.90;;;;;;2618461;54;20981;-85
2022/08/27 00:12:52;;;;;;;13.60;12.40;;;17.30;99.90;;;;;;2618436;54;20404;-84
2022/08/27 00:18:41;;;;;;;15.87;14.27;;;17.30;99.90;;;;;;2617881;54;20979;-84
2022/08/27 00:24:29;;;;;;;16.33;14.23;;;17.30;99.90;;;;;;2618371;54;20536;-86
2022/08/27 00:30:18;;;;;;;13.80;12.70;;;17.30;99.90;;;;;;2617835;54;20120;-84
2022/08/27 00:36:06;;;;;;;14.40;12.97;;;17.30;99.90;;;;;;2618263;54;20403;-85
2022/08/27 00:39:10;;;;;;;15.00;12.20;;;17.30;99.90;;;;;;2618574;47;20397;-86
2022/08/27 00:41:37;;;;;;;15.00;13.40;;;17.30;99.90;;;;;;2618281;47;20414;-85
2022/08/27 00:47:30;;;;;;;15.70;13.50;;;17.30;99.90;;;;;;2619537;54;20400;-85
2022/08/27 00:53:23;;;;;;;18.47;10.93;;;17.30;99.90;;;;;;2621402;54;21141;-84
2022/08/27 01:02:40;;;;;;;15.70;11.20;;;17.10;99.90;;;;;;2623475;54;20407;-83
2022/08/27 01:08:33;;;;;;;12.97;10.80;;;17.10;99.90;;;;;;2616981;54;20413;-79
2022/08/27 01:14:21;;;;;;;12.47;11.17;;;17.10;99.90;;;;;;2617340;54;20389;-78
2022/08/27 01:26:23;;;;;;;19.10;12.17;;;16.90;99.90;;;;;;2618067;54;20416;-77
2022/08/27 01:38:42;;;;;;;12.23;11.20;;;16.80;99.90;;;;;;2616792;54;20408;-78
2022/08/27 01:44:29;;;;;;;12.37;11.10;;;16.80;99.90;;;;;;2616902;54;20128;-79
2022/08/27 01:56:45;;;;;;;11.30;9.53;;;16.80;99.90;;;;;;2617153;54;20525;-78
2022/08/27 02:02:33;;;;;;;12.70;10.57;;;16.80;99.90;;;;;;2617317;54;20138;-78
2022/08/27 02:08:21;;;;;;;11.27;10.07;;;16.80;99.90;;;;;;2618046;54;20129;-78
2022/08/27 02:14:09;;;;;;;12.97;10.20;;;16.70;99.90;;;;;;2618455;54;20949;-78
2022/08/27 02:19:57;;;;;;;12.30;9.20;;;16.70;99.90;;;;;;2619095;54;20251;-78
2022/08/27 02:25:46;;;;;;;12.13;11.00;;;16.70;99.90;;;;;;2618668;54;20392;-78
2022/08/27 02:31:34;;;;;;;12.53;11.43;;;16.70;99.90;;;;;;2618623;54;20385;-78
2022/08/27 02:37:22;;;;;;;12.67;11.50;;;16.70;99.90;;;;;;2618436;54;20373;-78
2022/08/27 02:43:10;;;;;;;17.40;11.20;;;16.70;99.90;;;;;;2618471;54;20248;-79
2022/08/27 02:48:58;;;;;;;13.80;12.37;;;16.80;99.90;;;;;;2618522;54;20405;-85
2022/08/27 02:54:46;;;;;;;26.00;13.83;;;16.70;99.90;;;;;;2618514;54;20151;-85
2022/08/27 03:00:55;;;;;;;19.47;12.70;;;16.60;99.90;;;;;;2617067;46;20524;-84
2022/08/27 03:06:42;;;;;;;19.53;11.80;;;16.60;99.90;;;;;;2616486;54;20440;-84
2022/08/27 03:12:30;;;;;;;15.37;11.60;;;16.60;99.90;;;;;;2616550;54;20124;-83
2022/08/27 03:18:20;;;;;;;20.47;10.60;;;16.60;99.90;;;;;;2616932;54;20396;-84
2022/08/27 03:24:08;;;;;;;11.00;9.90;;;16.60;99.90;;;;;;2616890;54;20428;-84
2022/08/27 03:29:55;;;;;;;11.40;9.50;;;16.60;99.90;;;;;;2617257;54;20444;-84
2022/08/27 03:35:43;;;;;;;10.90;9.80;;;16.50;99.90;;;;;;2617962;54;20936;-83
2022/08/27 03:41:31;;;;;;;9.33;8.63;;;16.50;99.90;;;;;;2618576;54;20128;-83
2022/08/27 03:47:21;;;;;;;10.60;9.53;;;16.50;99.90;;;;;;2618581;54;20123;-84
2022/08/27 03:53:10;;;;;;;10.60;9.17;;;16.50;99.90;;;;;;2618648;54;20405;-85
2022/08/27 04:02:44;;;;;;;12.93;9.30;;;16.40;99.90;;;;;;2620233;39;20977;-84
2022/08/27 04:08:32;;;;;;;10.07;9.13;;;16.40;99.90;;;;;;2619072;39;20778;-83
2022/08/27 04:14:20;;;;;;;12.13;8.60;;;16.40;99.90;;;;;;2618871;54;20440;-85
2022/08/27 04:20:09;;;;;;;16.13;9.30;;;16.40;99.90;;;;;;2618438;54;20380;-84
2022/08/27 04:25:57;;;;;;;9.00;8.20;;;16.40;99.90;;;;;;2618429;54;20413;-81
2022/08/27 04:31:44;;;;;;;14.20;8.60;;;16.50;99.90;;;;;;2618909;54;20242;-82
2022/08/27 04:37:33;;;;;;;13.50;9.30;;;16.50;99.90;;;;;;2618651;54;20119;-83
2022/08/27 04:43:22;;;;;;;14.37;7.60;;;16.40;99.90;;;;;;2618741;54;20385;-85
2022/08/27 04:49:12;;;;;;;9.37;7.33;;;16.40;99.90;;;;;;2618987;54;20525;-84
2022/08/27 04:55:01;;;;;;;11.83;7.53;;;16.40;99.90;;;;;;2617909;54;20409;-76
2022/08/27 04:58:12;;;;;;;11.97;7.17;;;16.40;99.90;;;;;;2616331;47;20406;-78
2022/08/27 05:00:50;;;;;;;10.73;6.67;;;16.50;99.90;;;;;;2616125;47;20445;-78
2022/08/27 05:06:38;;;;;;;9.63;6.10;;;16.60;99.90;;;;;;2616890;54;20925;-78
2022/08/27 05:12:25;;;;;;;7.63;5.90;;;16.60;99.90;;;;;;2617397;54;20212;-79
2022/08/27 05:18:15;;;;;;;8.43;6.10;;;16.60;99.90;;;;;;2617701;54;20657;-77
2022/08/27 05:24:05;;;;;;;6.23;5.63;;;16.60;99.90;;;;;;2617658;54;20428;-78
2022/08/27 05:29:54;;;;;;;9.90;6.13;;;16.60;99.90;;;;;;2617132;54;20378;-79
2022/08/27 05:35:44;;;;;;;12.53;6.23;;;16.60;99.90;;;;;;2616620;54;20377;-79
2022/08/27 05:41:33;;;;;;;7.30;6.70;;;16.60;99.90;;;;;;2616710;54;20437;-78
2022/08/27 05:47:21;;;;;;;9.10;7.37;;;16.70;99.90;;;;;;2617231;54;20380;-78
2022/08/27 05:53:11;;;;;;;13.47;7.27;;;16.70;99.90;;;;;;2616899;39;20848;-78
2022/08/27 06:02:40;;;;;;;14.53;7.83;;;16.90;99.90;;;;;;2616452;54;20456;-79
2022/08/27 06:08:28;;;;;;;7.93;7.13;;;16.90;99.90;;;;;;2616404;54;20390;-80
2022/08/27 06:14:16;;;;;;;7.87;6.33;;;16.90;99.90;;;;;;2616553;54;20913;-77
2022/08/27 06:20:04;;;;;;;18.43;5.53;;;17.00;99.90;;;;;;2616420;54;20262;-78
2022/08/27 06:25:52;;;;;;;5.77;4.73;;;17.00;99.90;;;;;;2617070;54;20486;-78
2022/08/27 06:31:41;;;;;;;8.83;4.87;;;17.10;99.90;;;;;;2616508;54;20136;-79
2022/08/27 06:37:29;;;;;;;7.70;4.07;;;17.10;99.90;;;;;;2616557;54;20396;-81
2022/08/27 06:43:17;;;;;;;4.63;3.60;;;17.20;99.90;;;;;;2617746;54;21286;-80
2022/08/27 06:49:06;;;;;;;4.50;4.10;;;17.30;99.90;;;;;;2616778;54;20134;-82
2022/08/27 06:54:54;;;;;;;11.00;4.60;;;17.30;99.90;;;;;;2616903;54;20405;-81
2022/08/27 06:58:12;;;;;;;8.70;4.43;;;17.40;99.90;;;;;;2616948;54;20397;-80
2022/08/27 07:00:39;;;;;;;13.23;5.00;;;17.40;99.90;;;;;;2616520;54;20426;-80
2022/08/27 07:06:29;;;;;;;8.33;3.90;;;17.40;99.90;;;;;;2617105;54;20415;-80
2022/08/27 07:12:17;;;;;;;8.93;3.90;;;17.70;99.90;;;;;;2617315;54;20429;-81
2022/08/27 07:18:04;;;;;;;4.80;3.50;;;17.80;99.90;;;;;;2617412;54;20134;-81
2022/08/27 07:23:57;;;;;;;4.20;3.90;;;18.10;99.90;;;;;;2618774;39;20504;-80
2022/08/27 07:29:46;;;;;;;10.53;4.60;;;18.30;99.90;;;;;;2617317;54;20396;-85
2022/08/27 07:35:34;;;;;;;6.00;4.57;;;18.50;99.90;;;;;;2616663;54;20381;-78
2022/08/27 07:41:22;;;;;;;8.93;4.23;;;18.80;99.90;;;;;;2616871;54;20159;-82
2022/08/27 07:47:10;;;;;;;3.80;3.50;;;18.60;99.90;;;;;;2618535;54;20435;-83
2022/08/27 07:52:58;;;;;;;11.17;3.70;;;19.10;99.90;;;;;;2618519;54;20941;-82
2022/08/27 08:02:46;;;;;;;4.30;3.90;;;19.50;99.90;;;;;;2619460;54;20375;-85
2022/08/27 08:08:35;;;;;;;4.67;3.43;;;19.40;99.90;;;;;;2619712;39;20888;-85
2022/08/27 08:14:24;;;;;;;3.80;3.30;;;19.60;99.90;;;;;;2618811;54;20375;-86
2022/08/27 08:20:14;;;;;;;7.33;4.13;;;19.60;99.90;;;;;;2619394;31;20843;-78
2022/08/27 08:26:02;;;;;;;5.10;3.87;;;19.60;99.90;;;;;;2616964;54;20407;-79
2022/08/27 08:31:50;;;;;;;9.83;4.10;;;19.70;99.90;;;;;;2617164;54;20419;-77
2022/08/27 08:37:37;;;;;;;3.37;3.07;;;19.90;99.90;;;;;;2617169;54;20118;-77
2022/08/27 08:50:07;;;;;;;6.83;4.27;;;20.20;99.90;;;;;;2616988;54;20461;-78
2022/08/27 08:56:00;;;;;;;6.43;4.20;;;20.10;99.90;;;;;;2616937;54;20422;-77
2022/08/27 09:01:48;;;;;;;7.03;5.40;;;20.30;99.90;;;;;;2617124;54;21041;-78
2022/08/27 09:07:44;;;;;;;6.10;4.13;;;20.60;99.90;;;;;;2617838;54;20398;-78
2022/08/27 09:19:47;;;;;;;5.10;4.60;;;20.90;99.90;;;;;;2616766;39;20956;-78
2022/08/27 09:25:40;;;;;;;4.37;3.80;;;20.70;99.90;;;;;;2617073;54;20483;-78
2022/08/27 09:31:28;;;;;;;4.83;4.20;;;20.90;99.90;;;;;;2616667;54;20419;-79
2022/08/27 09:37:26;;;;;;;4.07;3.70;;;20.90;99.90;;;;;;2616307;54;20383;-76
2022/08/27 09:43:22;;;;;;;7.90;4.87;;;21.20;99.90;;;;;;2616289;54;20411;-76
2022/08/27 09:49:15;;;;;;;5.27;4.77;;;21.20;99.90;;;;;;2616431;54;20374;-78
2022/08/27 09:55:03;;;;;;;4.47;3.40;;;20.90;99.90;;;;;;2616673;54;20406;-76
2022/08/27 09:58:13;;;;;;;10.47;4.50;;;21.20;99.90;;;;;;2615662;54;20460;-76
2022/08/27 10:00:41;;;;;;;4.47;4.07;;;21.20;99.90;;;;;;2616559;39;21010;-76
2022/08/27 10:06:31;;;;;;;4.10;3.70;;;21.10;99.90;;;;;;2616652;54;20383;-78
2022/08/27 10:23:15;;;;;;;5.47;4.27;;;21.10;99.90;;;;;;2615879;54;20414;-77
2022/08/27 10:54:59;;;;;;;6.70;4.87;;;22.00;99.90;;;;;;2615896;54;20404;-78
2022/08/27 10:58:13;;;;;;;7.60;5.40;;;22.30;99.90;;;;;;2615935;47;20407;-78
2022/08/27 11:07:20;;;;;;;5.37;4.87;;;22.70;99.90;;;;;;2616504;39;20912;-77
2022/08/27 11:38:55;;;;;;;6.27;5.77;;;22.00;74.00;;;;;;2617567;54;20423;-76
2022/08/27 11:44:47;;;;;;;6.43;5.80;;;22.50;71.00;;;;;;2617429;54;20372;-76
2022/08/27 11:50:35;;;;;;;7.20;6.07;;;23.40;69.10;;;;;;2617452;54;20449;-77
2022/08/27 11:56:29;;;;;;;6.03;5.70;;;23.30;74.20;;;;;;2617318;54;20141;-78
2022/08/27 12:05:43;;;;;;;5.50;5.20;;;23.10;63.10;;;;;;2617387;54;20516;-77
2022/08/27 12:21:54;;;;;;;6.60;6.00;;;22.90;61.10;;;;;;2615659;54;21042;-78
2022/08/27 12:27:42;;;;;;;6.30;5.73;;;22.80;62.20;;;;;;2616492;39;20798;-76
2022/08/27 12:33:31;;;;;;;5.53;5.03;;;22.20;65.70;;;;;;2615997;54;20152;-77
2022/08/27 12:51:50;;;;;;;5.53;4.97;;;22.60;64.60;;;;;;2616949;54;20391;-78
2022/08/27 13:13:44;;;;;;;5.70;5.13;;;23.10;52.80;;;;;;2617573;54;20419;-77
2022/08/27 13:19:36;;;;;;;5.43;5.07;;;22.80;49.80;;;;;;2616176;54;20363;-78
2022/08/27 13:25:28;;;;;;;5.53;5.03;;;23.30;56.00;;;;;;2616435;54;20380;-80
2022/08/27 13:31:19;;;;;;;5.60;5.20;;;22.90;56.10;;;;;;2616727;54;20418;-79
2022/08/27 13:43:48;;;;;;;5.40;5.00;;;23.30;49.70;;;;;;2616742;54;20487;-79
2022/08/27 13:49:37;;;;;;;6.17;5.67;;;22.60;50.90;;;;;;2618047;54;20503;-78
2022/08/27 13:55:26;;;;;;;6.50;6.00;;;22.50;53.10;;;;;;2618063;54;20395;-79
2022/08/27 14:12:12;;;;;;;7.20;6.60;;;22.80;52.60;;;;;;2616820;54;20371;-78
2022/08/27 14:18:01;;;;;;;9.50;8.83;;;23.00;46.90;;;;;;2617341;54;20398;-79
2022/08/27 14:23:50;;;;;;;6.37;5.87;;;22.70;41.40;;;;;;2617534;39;20789;-78
2022/08/27 14:29:39;;;;;;;6.20;5.80;;;22.80;43.00;;;;;;2619447;54;20402;-85
2022/08/27 14:35:32;;;;;;;6.37;5.80;;;22.70;39.90;;;;;;2619449;39;20755;-84
2022/08/27 14:41:20;;;;;;;6.17;5.70;;;22.70;36.30;;;;;;2619270;54;20367;-83
2022/08/27 14:47:09;;;;;;;7.70;5.43;;;23.30;37.50;;;;;;2619763;54;20409;-84
2022/08/27 14:52:57;;;;;;;5.80;5.27;;;23.20;37.90;;;;;;2619182;54;20387;-84
2022/08/27 14:58:45;;;;;;;6.17;5.57;;;23.00;37.50;;;;;;2618586;54;20118;-83
2022/08/27 15:04:34;;;;;;;5.60;5.10;;;23.00;37.30;;;;;;2619397;54;20455;-82
2022/08/27 15:10:23;;;;;;;7.77;6.10;;;22.80;36.50;;;;;;2619018;54;20383;-84
2022/08/27 15:22:32;;;;;;;5.63;5.13;;;22.70;38.20;;;;;;2618692;54;20487;-84
2022/08/27 15:28:20;;;;;;;6.27;5.83;;;22.40;37.30;;;;;;2619669;54;20419;-82
2022/08/27 15:34:10;;;;;;;7.00;6.30;;;22.40;38.80;;;;;;2619051;54;20395;-85
2022/08/27 15:39:57;;;;;;;8.90;8.00;;;22.40;40.70;;;;;;2619520;39;20760;-81
2022/08/27 15:45:45;;;;;;;8.27;7.60;;;22.20;39.60;;;;;;2618630;54;20158;-84
2022/08/27 15:51:33;;;;;;;6.73;6.20;;;22.40;37.00;;;;;;2618950;54;20663;-84
2022/08/27 15:57:22;;;;;;;7.20;6.80;;;22.40;39.20;;;;;;2619788;39;20499;-83
2022/08/27 16:13:32;;;;;;;5.37;4.90;;;22.30;41.00;;;;;;2618544;39;20758;-84
2022/08/27 16:19:20;;;;;;;5.77;5.27;;;22.40;40.30;;;;;;2618062;54;20126;-83
2022/08/27 16:25:11;;;;;;;6.30;5.80;;;22.10;39.50;;;;;;2618899;54;20146;-85
2022/08/27 16:30:58;;;;;;;7.23;5.27;;;22.10;40.80;;;;;;2618392;54;20970;-82
2022/08/27 16:36:46;;;;;;;4.90;4.60;;;22.00;40.00;;;;;;2618250;54;20404;-84
2022/08/27 16:42:33;;;;;;;5.30;4.80;;;22.00;37.90;;;;;;2618165;54;20173;-83
2022/08/27 16:54:34;;;;;;;5.43;4.93;;;21.60;42.00;;;;;;2618515;54;20408;-85
2022/08/27 17:00:22;;;;;;;6.70;5.80;;;21.40;42.80;;;;;;2619300;39;20913;-85
2022/08/27 17:06:13;;;;;;;5.87;5.37;;;21.40;41.90;;;;;;2616883;54;20458;-83
2022/08/27 17:12:03;;;;;;;6.27;4.70;;;21.30;43.80;;;;;;2620330;54;20375;-84
2022/08/27 17:17:50;;;;;;;7.93;4.60;;;21.30;44.30;;;;;;2619656;54;20388;-85
2022/08/27 17:23:40;;;;;;;5.07;4.57;;;21.20;44.80;;;;;;2617645;54;20151;-84
2022/08/27 17:29:28;;;;;;;4.83;4.43;;;21.20;47.10;;;;;;2620385;39;20753;-82
2022/08/27 17:35:16;;;;;;;4.60;4.30;;;21.10;47.00;;;;;;2620501;54;21066;-83
2022/08/27 17:47:38;;;;;;;6.97;5.40;;;21.00;48.90;;;;;;2618912;54;20388;-85
2022/08/27 17:53:26;;;;;;;6.80;5.33;;;20.90;49.90;;;;;;2619174;54;20695;-82
2022/08/27 17:59:14;;;;;;;6.30;5.70;;;20.90;50.10;;;;;;2618189;54;20390;-85
2022/08/27 18:02:17;;;;;;;7.40;6.27;;;20.80;53.10;;;;;;2618491;54;20408;-83
2022/08/27 18:04:43;;;;;;;7.60;6.43;;;20.90;51.30;;;;;;2618502;54;20202;-82
2022/08/27 18:10:31;;;;;;;6.93;6.27;;;20.80;51.80;;;;;;2618212;54;20186;-84
2022/08/27 18:16:20;;;;;;;7.37;6.10;;;20.70;52.30;;;;;;2618481;39;20807;-85
2022/08/27 18:22:08;;;;;;;13.10;7.10;;;20.70;49.40;;;;;;2618049;54;20348;-84
2022/08/27 18:27:58;;;;;;;5.67;5.17;;;20.70;49.10;;;;;;2617247;54;20432;-83
2022/08/27 18:33:45;;;;;;;8.87;6.40;;;20.60;50.30;;;;;;2619209;54;20399;-84
2022/08/27 18:39:33;;;;;;;11.70;7.63;;;20.50;51.30;;;;;;2618852;54;20162;-86
2022/08/27 18:45:24;;;;;;;7.23;6.13;;;20.50;50.60;;;;;;2620225;39;20632;-85
2022/08/27 18:51:16;;;;;;;6.67;6.07;;;20.50;51.30;;;;;;2619320;54;20363;-83
2022/08/27 18:57:05;;;;;;;7.10;6.50;;;20.40;52.70;;;;;;2619782;54;20397;-86
2022/08/27 19:13:17;;;;;;;8.07;5.57;;;20.30;57.10;;;;;;2617423;54;20436;-85
2022/08/27 19:19:04;;;;;;;6.80;5.77;;;20.30;54.50;;;;;;2617762;54;20403;-86
2022/08/27 19:24:52;;;;;;;6.30;5.60;;;20.30;56.60;;;;;;2617813;54;20418;-84
2022/08/27 19:30:39;;;;;;;5.90;5.33;;;20.20;56.50;;;;;;2616955;39;20719;-87
2022/08/27 19:34:03;;;;;;;8.90;6.00;;;20.20;55.80;;;;;;2617351;54;20416;-84
2022/08/27 19:39:51;;;;;;;5.70;5.23;;;20.20;57.20;;;;;;2618333;39;20798;-84
2022/08/27 19:45:40;;;;;;;6.37;5.87;;;20.10;57.60;;;;;;2618514;54;20492;-84
2022/08/27 19:51:28;;;;;;;5.97;5.40;;;20.10;58.80;;;;;;2618324;39;20519;-83
2022/08/27 19:57:16;;;;;;;7.93;6.23;;;20.10;58.60;;;;;;2620299;54;20146;-84
2022/08/27 20:06:54;;;;;;;6.23;5.57;;;20.00;61.70;;;;;;2618747;54;20407;-84
2022/08/27 20:12:42;;;;;;;7.10;4.80;;;19.90;63.20;;;;;;2617985;54;20407;-81
2022/08/27 20:18:33;;;;;;;5.70;5.20;;;19.90;65.90;;;;;;2619018;54;20394;-83
2022/08/27 20:24:21;;;;;;;8.80;5.40;;;19.90;67.70;;;;;;2618602;54;20375;-84
2022/08/27 20:30:12;;;;;;;8.60;5.47;;;19.80;66.10;;;;;;2619027;39;20510;-85
2022/08/27 20:36:01;;;;;;;7.70;5.10;;;19.80;66.10;;;;;;2617432;54;20398;-84
2022/08/27 20:41:50;;;;;;;10.13;5.03;;;19.80;66.00;;;;;;2619402;46;20399;-84
2022/08/27 20:47:42;;;;;;;8.90;4.40;;;19.80;66.00;;;;;;2618541;54;20506;-85
2022/08/27 20:53:30;;;;;;;4.80;4.30;;;19.70;68.90;;;;;;2618103;54;20393;-83
2022/08/27 21:02:27;;;;;;;14.53;5.67;;;19.70;71.80;;;;;;2617712;54;20416;-84
2022/08/27 21:04:54;;;;;;;7.63;5.27;;;19.60;72.50;;;;;;2616842;47;20460;-85
2022/08/27 21:10:45;;;;;;;7.90;5.10;;;19.60;71.60;;;;;;2618278;54;20419;-84
2022/08/27 21:16:32;;;;;;;7.43;5.13;;;19.70;67.20;;;;;;2618581;54;20435;-84
2022/08/27 21:22:21;;;;;;;10.00;5.43;;;19.60;65.80;;;;;;2618872;54;20138;-84
2022/08/27 21:28:09;;;;;;;4.10;3.80;;;19.60;65.40;;;;;;2618533;54;20376;-85
2022/08/27 21:33:57;;;;;;;6.13;4.03;;;19.60;62.70;;;;;;2618541;54;20141;-84
2022/08/27 21:39:45;;;;;;;7.53;5.00;;;19.40;62.80;;;;;;2618153;54;20692;-83
2022/08/27 21:45:34;;;;;;;4.60;4.20;;;19.40;61.60;;;;;;2618304;54;20425;-83
2022/08/27 21:51:22;;;;;;;12.40;4.73;;;19.40;56.60;;;;;;2619329;54;20497;-83
2022/08/27 21:57:10;;;;;;;5.70;4.30;;;19.20;57.10;;;;;;2620254;54;20177;-84
2022/08/27 22:06:55;;;;;;;8.27;5.37;;;19.10;56.90;;;;;;2618472;54;20432;-85
2022/08/27 22:12:42;;;;;;;6.10;4.43;;;19.10;58.20;;;;;;2618445;54;20425;-84
2022/08/27 22:18:31;;;;;;;7.27;4.10;;;18.90;59.90;;;;;;2618602;54;20151;-84
2022/08/27 22:24:19;;;;;;;5.73;5.30;;;18.90;63.20;;;;;;2619019;54;20382;-84
2022/08/27 22:30:07;;;;;;;10.17;4.90;;;18.80;66.30;;;;;;2618872;54;20160;-86
2022/08/27 22:35:55;;;;;;;6.70;4.50;;;18.80;66.30;;;;;;2619055;54;20398;-84
2022/08/27 22:41:43;;;;;;;10.30;4.83;;;18.70;67.20;;;;;;2619040;54;20132;-84
2022/08/27 22:47:33;;;;;;;7.13;4.47;;;18.60;68.80;;;;;;2619809;54;20197;-85
2022/08/27 22:53:21;;;;;;;5.50;4.60;;;18.50;71.40;;;;;;2619668;54;20939;-86
2022/08/27 22:59:09;;;;;;;5.90;5.13;;;18.50;75.30;;;;;;2619462;54;20122;-85
2022/08/27 23:02:23;;;;;;;11.43;5.53;;;18.40;74.00;;;;;;2619753;54;20930;-85
2022/08/27 23:04:48;;;;;;;15.40;5.97;;;18.40;76.50;;;;;;2617885;47;20166;-84
2022/08/27 23:10:37;;;;;;;11.57;5.30;;;18.30;75.90;;;;;;2618749;54;20181;-84
2022/08/27 23:16:25;;;;;;;6.90;4.93;;;18.20;77.40;;;;;;2619279;54;20380;-83
2022/08/27 23:22:15;;;;;;;9.57;5.27;;;18.00;78.10;;;;;;2619347;54;20375;-86
2022/08/27 23:28:03;;;;;;;6.57;4.40;;;17.90;78.90;;;;;;2618644;39;20754;-86
2022/08/27 23:33:52;;;;;;;5.33;4.83;;;17.80;85.40;;;;;;2618907;54;20357;-85
2022/08/27 23:39:40;;;;;;;6.73;5.00;;;17.60;90.50;;;;;;2617594;54;20936;-84
2022/08/27 23:45:29;;;;;;;10.40;5.07;;;17.50;92.30;;;;;;2619090;54;20120;-82
2022/08/27 23:51:16;;;;;;;5.53;5.03;;;17.50;93.70;;;;;;2618389;54;20375;-83
2022/08/27 23:57:04;;;;;;;9.87;5.87;;;17.50;93.70;;;;;;2618910;54;20181;-84
